WetterOnline ( https://www.wetteronline.de )

Wetter aktuell Havelberg

Aktuelles Wetter: Seehausen (23m)

6-stündlich | Neueste Meldungen
Ortszeit Temperatur Wetter
Do, 19.09. 2:00 9.4° C bedeckt
Mi, 18.09. 20:00 12.5° C leicht bewölkt
Mi, 18.09. 14:00 15.9° C leicht bewölkt
Mi, 18.09. 8:00 9.0° C wolkenlos
Mi, 18.09. 2:00 8.5° C wolkenlos
Di, 17.09. 20:00 10.9° C wolkenlos
Di, 17.09. 14:00 12.4° C leichter Regen
Di, 17.09. 8:00 10.1° C bewölkt
Ortszeit Temperatur Wetter
Do, 19.09. 5:30 6.1° C wolkig
Do, 19.09. 5:20 6.1° C wolkig
Do, 19.09. 5:10 6.3° C leicht bewölkt
Do, 19.09. 5:00 6.9° C fast wolkenlos
Do, 19.09. 4:50 6.9° C fast wolkenlos
Do, 19.09. 4:40 7.2° C fast wolkenlos
Do, 19.09. 4:30 7.3° C wolkenlos
Do, 19.09. 4:00 7.4° C fast wolkenlos
Do, 19.09. 3:30 8.1° C wolkenlos
Do, 19.09. 3:00 8.5° C fast wolkenlos
Do, 19.09. 2:30 8.6° C leicht bewölkt
Ortszeit Relative Feuchte Sichtweite
Do, 19.09. 2:00 72% 50 km
Mi, 18.09. 20:00 51% 70 km
Mi, 18.09. 14:00 40% 30 km
Mi, 18.09. 8:00 84% 35 km
Mi, 18.09. 2:00 81% 45 km
Di, 17.09. 20:00 66% 60 km
Di, 17.09. 14:00 89% 18 km
Di, 17.09. 8:00 82% 30 km
Ortszeit Relative Feuchte Sichtweite
Do, 19.09. 5:30 86% 50 km
Do, 19.09. 5:20 86% -
Do, 19.09. 5:10 85% -
Do, 19.09. 5:00 83% 50 km
Do, 19.09. 4:50 83% -
Do, 19.09. 4:40 82% -
Do, 19.09. 4:30 82% 50 km
Do, 19.09. 4:00 82% 50 km
Do, 19.09. 3:30 78% 50 km
Do, 19.09. 3:00 76% 50 km
Do, 19.09. 2:30 75% 50 km
Ortszeit Niederschlagsmenge Niederschlagsart
Do, 19.09. 2:00 0.0 l/m2 in 6 Std. -
Mi, 18.09. 20:00 0.1 l/m2 in 12 Std. Regen
Mi, 18.09. 14:00 0.0 l/m2 in 6 Std. -
Mi, 18.09. 8:00 0.0 l/m2 in 12 Std. -
Mi, 18.09. 2:00 0.0 l/m2 in 6 Std. -
Di, 17.09. 20:00 2 l/m2 in 12 Std. Regen
Di, 17.09. 14:00 1 l/m2 in 6 Std. Regen
Di, 17.09. 8:00 0.1 l/m2 in 12 Std. -
Ortszeit Niederschlagsmenge Niederschlagsart
Do, 19.09. 5:30 0.0 l/m2 in 1 Std. -
Do, 19.09. 5:20 keine Meldung -
Do, 19.09. 5:10 keine Meldung -
Do, 19.09. 5:00 0.0 l/m2 in 1 Std. -
Do, 19.09. 4:50 keine Meldung -
Do, 19.09. 4:40 keine Meldung -
Do, 19.09. 4:30 0.0 l/m2 in 1 Std. -
Do, 19.09. 4:00 0.0 l/m2 in 1 Std. -
Do, 19.09. 3:30 0.0 l/m2 in 1 Std. -
Do, 19.09. 3:00 0.0 l/m2 in 1 Std. -
Do, 19.09. 2:30 0.0 l/m2 in 1 Std. -
Ortszeit Stärke Spitze Richtung
km/h Bft. km/h Grad Sektor
Do, 19.09. 2:00 14 3 40 270° W
Mi, 18.09. 20:00 18 3 47 300° NW
Mi, 18.09. 14:00 25 4 50 290° W
Mi, 18.09. 8:00 19 3 35 260° W
Mi, 18.09. 2:00 18 3 43 270° W
Di, 17.09. 20:00 20 4 65 270° W
Di, 17.09. 14:00 24 4 46 250° W
Di, 17.09. 8:00 18 3 32 240° SW
Ortszeit Stärke Spitze Richtung
km/h Bft. km/h Grad Sektor
Do, 19.09. 5:30 11 2 14 260° W
Do, 19.09. 5:20 11 2 - 260° W
Do, 19.09. 5:10 11 2 - 270° W
Do, 19.09. 5:00 13 3 19 270° W
Do, 19.09. 4:50 13 3 - 270° W
Do, 19.09. 4:40 13 3 - 270° W
Do, 19.09. 4:30 13 3 19 270° W
Do, 19.09. 4:00 13 3 22 270° W
Do, 19.09. 3:30 15 3 22 270° W
Do, 19.09. 3:00 17 3 24 270° W
Do, 19.09. 2:30 15 3 22 270° W
Ortszeit Untergrenze Bedeckung Gattung
total tief tief mittel hoch
Do, 19.09. 2:00 1500 m 8/8 8/8 - - -
Mi, 18.09. 20:00 2100 m 4/8 4/8 - - -
Mi, 18.09. 14:00 1410 m 3/8 3/8 - - -
Mi, 18.09. 8:00 - 0/8 0/8 - - -
Mi, 18.09. 2:00 - 0/8 0/8 - - -
Di, 17.09. 20:00 - 0/8 0/8 - - -
Di, 17.09. 14:00 300 m 8/8 8/8 - - -
Di, 17.09. 8:00 1800 m 7/8 7/8 - - -
Ortszeit Bedeckungsgrad in Achtel und Wolkenuntergrenze
Do, 19.09. 5:30 7(9000m)
Do, 19.09. 5:20 7(9000m)
Do, 19.09. 5:10 6(9000m) 6(10500m)
Do, 19.09. 5:00 1(10500m)
Do, 19.09. 4:50 1(10500m)
Do, 19.09. 4:40 1(10500m)
Do, 19.09. 4:30 1(10500m)
Do, 19.09. 4:00 1(10500m)
Do, 19.09. 3:30 keine Wolken
Do, 19.09. 3:00 2(10500m)
Do, 19.09. 2:30 2(1500m)
Ortszeit Luftdruck NN (hPa) Tendenz (hPa in 3 Std.)
Do, 19.09. 2:00 1025 + 0,7
Mi, 18.09. 20:00 1023 + 0,9
Mi, 18.09. 14:00 1023 + 0,1
Mi, 18.09. 8:00 1021 + 1,4
Mi, 18.09. 2:00 1019 + 2,0
Di, 17.09. 20:00 1015 + 1,5
Di, 17.09. 14:00 1013 - 1,2
Di, 17.09. 8:00 1015 - 1,0
Ortszeit Luftdruck NN (hPa) Tendenz (hPa in 3 Std.)
Do, 19.09. 5:30 1026 + 0,6
Do, 19.09. 5:20 1026 keine Meldung
Do, 19.09. 5:10 1026 keine Meldung
Do, 19.09. 5:00 1026 + 0,4
Do, 19.09. 4:50 1026 keine Meldung
Do, 19.09. 4:40 1026 keine Meldung
Do, 19.09. 4:30 1025 + 0,4
Do, 19.09. 4:00 1025 + 0,3
Do, 19.09. 3:30 1025 + 0,4
Do, 19.09. 3:00 1025 + 0,5
Do, 19.09. 2:30 1025 + 0,5
Ortszeit Schneehöhe (cm)
Do, 19.09. 2:00 -
Mi, 18.09. 20:00 -
Mi, 18.09. 14:00 -
Mi, 18.09. 8:00 -
Mi, 18.09. 2:00 -
Di, 17.09. 20:00 -
Di, 17.09. 14:00 -
Di, 17.09. 8:00 -
Ortszeit Schneehöhe (cm)
Do, 19.09. 5:30 -
Do, 19.09. 5:20 -
Do, 19.09. 5:10 -
Do, 19.09. 5:00 -
Do, 19.09. 4:50 -
Do, 19.09. 4:40 -
Do, 19.09. 4:30 -
Do, 19.09. 4:00 -
Do, 19.09. 3:30 -
Do, 19.09. 3:00 -
Do, 19.09. 2:30 -
Link zu dieser Seite / Seite empfehlen

Das Wetter in ...